createdAt,value
2022-10-11T00:03:05.366Z,63.21
2022-10-11T00:06:12.130Z,61.07
2022-10-11T00:09:18.797Z,62.16
2022-10-11T00:12:25.584Z,61.35
2022-10-11T00:15:32.338Z,61.21
2022-10-11T00:18:40.031Z,59.63
2022-10-11T00:21:47.185Z,60.92
2022-10-11T00:24:54.126Z,65.43
2022-10-11T00:28:00.957Z,66.46
2022-10-11T00:31:11.152Z,64.18
2022-10-11T00:34:18.200Z,64.41
2022-10-11T00:37:25.040Z,63.44
2022-10-11T00:40:31.770Z,62.43
2022-10-11T00:43:38.674Z,61.66
2022-10-11T00:46:55.607Z,60.93
2022-10-11T00:50:04.278Z,60.70
2022-10-11T00:53:14.419Z,59.19
2022-10-11T00:56:25.296Z,60.13
2022-10-11T00:59:37.511Z,63.39
2022-10-11T01:02:44.807Z,65.17
2022-10-11T01:05:51.742Z,64.93
2022-10-11T01:08:59.031Z,62.94
2022-10-11T01:12:13.352Z,62.64
2022-10-11T01:15:26.736Z,61.69
2022-10-11T01:18:36.724Z,61.22
2022-10-11T01:21:49.023Z,60.80
2022-10-11T01:25:16.117Z,61.08
2022-10-11T01:28:37.730Z,61.68
2022-10-11T01:31:52.596Z,61.12
2022-10-11T01:35:04.163Z,61.30
2022-10-11T01:38:17.153Z,62.19
2022-10-11T01:41:28.898Z,61.91
2022-10-11T01:44:37.625Z,62.04
2022-10-11T01:47:45.788Z,62.32
2022-10-11T01:50:55.095Z,63.74
2022-10-11T01:54:35.229Z,63.97
2022-10-11T01:58:08.889Z,64.57
2022-10-11T02:01:27.999Z,64.98
2022-10-11T02:04:40.576Z,64.33
2022-10-11T02:07:52.818Z,63.69
2022-10-11T02:11:05.749Z,65.35
2022-10-11T02:14:16.633Z,65.00
2022-10-11T02:17:28.532Z,65.65
2022-10-11T02:20:39.257Z,67.18
2022-10-11T02:23:52.293Z,67.44
2022-10-11T02:27:01.342Z,66.78
2022-10-11T02:30:10.332Z,67.81
2022-10-11T02:33:22.999Z,68.06
2022-10-11T02:36:40.262Z,66.64
2022-10-11T02:39:52.575Z,66.14
2022-10-11T02:43:04.220Z,65.18
2022-10-11T02:46:12.195Z,64.81
2022-10-11T02:49:19.739Z,64.10
2022-10-11T02:52:26.526Z,66.41
2022-10-11T02:55:33.268Z,67.27
2022-10-11T02:58:40.051Z,65.64
2022-10-11T03:01:46.923Z,64.98
2022-10-11T03:04:53.677Z,66.43
2022-10-11T03:08:00.400Z,66.67
2022-10-11T03:11:06.958Z,67.40
2022-10-11T03:14:13.575Z,67.40
2022-10-11T03:17:35.627Z,66.35
2022-10-11T03:20:43.370Z,66.79
2022-10-11T03:23:50.217Z,66.27
2022-10-11T03:26:56.760Z,67.28
2022-10-11T03:30:03.562Z,69.59
2022-10-11T03:33:10.153Z,68.94
2022-10-11T03:36:16.973Z,67.52
2022-10-11T03:39:23.586Z,66.98
2022-10-11T03:42:30.526Z,67.70
2022-10-11T03:45:37.517Z,68.22
2022-10-11T03:48:44.258Z,68.34
2022-10-11T03:51:50.836Z,68.98
2022-10-11T03:54:57.705Z,67.64
2022-10-11T03:58:06.353Z,69.29
2022-10-11T04:01:13.300Z,69.04
2022-10-11T04:04:19.903Z,71.36
2022-10-11T04:07:26.511Z,70.71
2022-10-11T04:10:33.153Z,69.91
2022-10-11T04:13:40.023Z,71.47
2022-10-11T04:16:46.797Z,70.93
2022-10-11T04:19:53.416Z,69.18
2022-10-11T04:23:00.084Z,67.62
2022-10-11T04:26:08.981Z,67.54
2022-10-11T04:29:16.217Z,66.54
2022-10-11T04:32:22.895Z,65.93
2022-10-11T04:35:29.622Z,64.70
2022-10-11T04:38:39.809Z,63.67
2022-10-11T04:41:46.414Z,64.26
2022-10-11T04:44:53.063Z,64.21
2022-10-11T04:48:00.032Z,64.78
2022-10-11T04:51:07.453Z,65.26
2022-10-11T04:54:14.309Z,65.88
2022-10-11T04:57:20.887Z,67.06
2022-10-11T05:00:27.509Z,67.93
2022-10-11T05:03:36.697Z,69.23
2022-10-11T05:06:43.384Z,69.84
2022-10-11T05:09:50.088Z,67.44
2022-10-11T05:12:56.641Z,66.84
2022-10-11T05:16:08.388Z,67.07
2022-10-11T05:19:17.526Z,66.42
2022-10-11T05:22:24.128Z,64.99
2022-10-11T05:25:31.019Z,64.03
2022-10-11T05:28:38.354Z,65.26
2022-10-11T05:31:45.122Z,66.23
2022-10-11T05:34:51.702Z,65.92
2022-10-11T05:37:58.360Z,66.17
2022-10-11T05:41:06.766Z,66.22
2022-10-11T05:44:13.318Z,65.88
2022-10-11T05:47:20.055Z,66.20
2022-10-11T05:50:26.784Z,67.15
2022-10-11T05:53:33.676Z,67.34
2022-10-11T05:56:40.275Z,66.91
2022-10-11T05:59:47.032Z,66.56
2022-10-11T06:02:53.725Z,66.38
2022-10-11T06:06:04.807Z,67.07
2022-10-11T06:09:12.148Z,68.12
2022-10-11T06:12:18.854Z,66.65
2022-10-11T06:15:25.789Z,65.39
2022-10-11T06:18:32.583Z,64.23
2022-10-11T06:21:39.451Z,65.59
2022-10-11T06:24:46.191Z,66.30
2022-10-11T06:27:52.889Z,66.30
2022-10-11T06:30:59.897Z,67.44
2022-10-11T06:34:06.482Z,67.84
2022-10-11T06:37:13.141Z,68.57
2022-10-11T06:40:20.120Z,68.10
2022-10-11T06:43:26.635Z,67.97
2022-10-11T06:46:34.079Z,67.43
2022-10-11T06:49:40.788Z,66.59
2022-10-11T06:52:49.151Z,66.81
2022-10-11T06:56:02.661Z,66.49
2022-10-11T06:59:09.899Z,65.85
2022-10-11T07:02:16.473Z,65.79
2022-10-11T07:05:23.105Z,65.27
2022-10-11T07:08:29.693Z,64.24
2022-10-11T07:11:37.277Z,63.69
2022-10-11T07:14:43.808Z,64.86
2022-10-11T07:17:50.408Z,65.44
2022-10-11T07:20:56.866Z,64.67
2022-10-11T07:24:04.294Z,64.92
2022-10-11T07:27:10.752Z,64.16
2022-10-11T07:30:17.571Z,62.98
2022-10-11T07:33:24.143Z,62.57
2022-10-11T07:36:30.675Z,62.54
2022-10-11T07:39:37.490Z,61.11
2022-10-11T07:42:44.097Z,60.57
2022-10-11T07:45:54.638Z,60.92
2022-10-11T07:49:01.395Z,60.70
2022-10-11T07:52:08.315Z,61.55
2022-10-11T07:55:15.027Z,62.55
2022-10-11T07:58:21.605Z,62.86
2022-10-11T08:01:29.439Z,62.00
2022-10-11T08:04:36.154Z,60.79
2022-10-11T08:07:42.974Z,60.48
2022-10-11T08:10:49.632Z,59.28
2022-10-11T08:13:58.705Z,60.49
2022-10-11T08:17:05.481Z,63.68
2022-10-11T08:20:13.074Z,63.51
2022-10-11T08:23:20.689Z,61.74
2022-10-11T08:26:27.896Z,60.57
2022-10-11T08:29:34.954Z,59.15
2022-10-11T08:32:43.668Z,59.34
2022-10-11T08:35:51.979Z,61.94
2022-10-11T08:38:58.458Z,62.51
2022-10-11T08:42:12.526Z,60.54
2022-10-11T08:45:29.627Z,60.42
2022-10-11T08:48:39.606Z,59.12
2022-10-11T08:51:51.918Z,61.38
2022-10-11T08:55:02.630Z,62.99
2022-10-11T08:58:11.794Z,61.45
2022-10-11T09:01:19.169Z,59.60
2022-10-11T09:04:25.845Z,58.68
2022-10-11T09:07:44.064Z,60.66
2022-10-11T09:11:05.156Z,62.51
2022-10-11T09:14:34.491Z,61.81
2022-10-11T09:17:53.096Z,59.48
2022-10-11T09:21:22.815Z,58.25
2022-10-11T09:24:47.430Z,62.27
2022-10-11T09:28:05.127Z,61.61
2022-10-11T09:31:12.731Z,58.49
2022-10-11T09:34:19.788Z,60.24
2022-10-11T09:37:32.757Z,61.31
2022-10-11T09:40:49.204Z,61.71
2022-10-11T09:43:56.333Z,62.18
2022-10-11T09:47:03.011Z,60.55
2022-10-11T09:50:19.804Z,58.87
2022-10-11T09:53:54.293Z,59.57
2022-10-11T09:57:00.961Z,58.61
2022-10-11T10:00:21.355Z,59.77
2022-10-11T10:03:32.160Z,61.18
2022-10-11T10:06:40.076Z,62.28
2022-10-11T10:09:46.695Z,60.84
2022-10-11T10:12:58.966Z,58.93
2022-10-11T10:16:08.039Z,60.05
2022-10-11T10:19:18.375Z,60.53
2022-10-11T10:22:28.814Z,61.36
2022-10-11T10:25:43.284Z,60.40
2022-10-11T10:29:03.290Z,60.07
2022-10-11T10:32:15.448Z,59.24
2022-10-11T10:35:37.455Z,57.52
2022-10-11T10:38:52.334Z,57.65
2022-10-11T10:42:00.830Z,58.58
2022-10-11T10:45:20.810Z,58.92
2022-10-11T10:49:11.673Z,59.57
2022-10-11T10:52:21.051Z,58.52
2022-10-11T10:55:35.431Z,58.06
2022-10-11T10:58:56.402Z,56.14
2022-10-11T11:02:35.530Z,55.49
2022-10-11T11:05:50.743Z,54.95
2022-10-11T11:09:06.823Z,54.12
2022-10-11T11:12:29.857Z,53.07
2022-10-11T11:15:41.842Z,53.20
2022-10-11T11:18:59.419Z,52.04
2022-10-11T11:22:15.868Z,50.94
2022-10-11T11:25:32.190Z,52.00
2022-10-11T11:28:53.630Z,52.78
2022-10-11T11:32:18.451Z,51.71
2022-10-11T11:35:33.377Z,52.81
2022-10-11T11:38:46.421Z,51.04
2022-10-11T11:41:57.947Z,49.35
2022-10-11T11:45:16.711Z,48.50
2022-10-11T11:48:25.835Z,49.12
2022-10-11T11:51:32.346Z,47.48
2022-10-11T11:54:49.575Z,46.59
2022-10-11T11:58:07.555Z,46.11
2022-10-11T12:01:26.480Z,46.96
2022-10-11T12:04:38.122Z,48.29
2022-10-11T12:07:59.705Z,48.82
2022-10-11T12:11:06.837Z,50.03
2022-10-11T12:14:30.608Z,50.76
2022-10-11T12:17:57.813Z,49.97
2022-10-11T12:21:07.706Z,47.14
2022-10-11T12:24:22.974Z,48.19
2022-10-11T12:27:43.998Z,49.35
2022-10-11T12:31:04.605Z,49.35
2022-10-11T12:34:35.323Z,49.81
2022-10-11T12:38:03.847Z,49.66
2022-10-11T12:41:51.568Z,49.51
2022-10-11T12:45:33.199Z,49.60
2022-10-11T12:48:53.481Z,48.56
2022-10-11T12:52:03.789Z,48.16
2022-10-11T12:55:23.974Z,48.62
2022-10-11T12:58:38.395Z,47.24
2022-10-11T13:01:54.228Z,45.83
2022-10-11T13:05:16.874Z,44.42
2022-10-11T13:08:29.743Z,43.94
2022-10-11T13:11:39.903Z,44.12
2022-10-11T13:14:49.303Z,43.96
2022-10-11T13:18:01.581Z,44.89
2022-10-11T13:21:24.061Z,45.16
2022-10-11T13:24:38.485Z,45.38
2022-10-11T13:27:45.438Z,44.35
2022-10-11T13:30:56.028Z,44.01
2022-10-11T13:34:02.805Z,41.91
2022-10-11T13:37:16.473Z,42.66
2022-10-11T13:40:24.453Z,43.43
2022-10-11T13:43:33.151Z,44.09
2022-10-11T13:46:41.811Z,45.15
2022-10-11T13:50:01.638Z,44.84
2022-10-11T13:53:24.516Z,44.21
2022-10-11T13:56:33.623Z,44.17
2022-10-11T13:59:43.957Z,45.28
2022-10-11T14:02:56.122Z,45.95
2022-10-11T14:06:03.526Z,45.45
2022-10-11T14:09:20.121Z,46.22
2022-10-11T14:12:34.052Z,46.57
2022-10-11T14:15:40.791Z,47.11
2022-10-11T14:18:49.893Z,47.42
2022-10-11T14:21:56.706Z,47.46
2022-10-11T14:25:03.572Z,47.82
2022-10-11T14:28:14.149Z,48.05
2022-10-11T14:31:21.003Z,47.88
2022-10-11T14:34:28.954Z,47.69
2022-10-11T14:37:35.658Z,47.92
2022-10-11T14:40:42.374Z,47.46
2022-10-11T14:43:49.173Z,47.18
2022-10-11T14:46:56.456Z,47.17
2022-10-11T14:50:03.383Z,47.04
2022-10-11T14:53:13.924Z,46.45
2022-10-11T14:56:21.831Z,46.98
2022-10-11T14:59:32.760Z,46.91
2022-10-11T15:02:39.384Z,47.43
2022-10-11T15:05:47.152Z,47.41
2022-10-11T15:08:54.012Z,47.52
2022-10-11T15:12:00.821Z,47.74
2022-10-11T15:15:08.397Z,48.04
2022-10-11T15:18:17.724Z,48.22
2022-10-11T15:21:24.528Z,48.43
2022-10-11T15:24:31.368Z,48.78
2022-10-11T15:27:38.081Z,49.07
2022-10-11T15:30:44.862Z,49.34
2022-10-11T15:33:52.294Z,49.47
2022-10-11T15:36:58.879Z,49.66
2022-10-11T15:40:11.579Z,49.90
2022-10-11T15:43:24.291Z,50.32
2022-10-11T15:46:32.312Z,51.11
2022-10-11T15:49:39.282Z,51.85
2022-10-11T15:52:45.830Z,52.04
2022-10-11T15:55:54.563Z,52.38
2022-10-11T15:59:01.519Z,53.14
2022-10-11T16:02:14.205Z,53.56
2022-10-11T16:05:23.529Z,53.60
2022-10-11T16:08:30.313Z,54.15
2022-10-11T16:11:37.052Z,54.63
2022-10-11T16:14:47.086Z,54.94
2022-10-11T16:17:54.067Z,56.00
2022-10-11T16:21:00.772Z,57.33
2022-10-11T16:24:08.954Z,57.84
2022-10-11T16:27:18.987Z,58.40
2022-10-11T16:30:26.255Z,58.95
2022-10-11T16:33:32.780Z,59.90
2022-10-11T16:36:42.678Z,60.56
2022-10-11T16:39:49.654Z,61.18
2022-10-11T16:42:56.547Z,65.48
2022-10-11T16:46:03.731Z,71.06
2022-10-11T16:49:10.869Z,66.99
2022-10-11T16:52:18.412Z,64.01
2022-10-11T16:55:25.313Z,63.06
2022-10-11T16:58:32.031Z,60.99
2022-10-11T17:01:39.185Z,56.72
2022-10-11T17:04:46.351Z,56.16
2022-10-11T17:07:53.183Z,57.51
2022-10-11T17:11:00.408Z,58.95
2022-10-11T17:14:07.785Z,60.14
2022-10-11T17:17:14.589Z,61.03
2022-10-11T17:20:21.352Z,65.60
2022-10-11T17:23:28.322Z,68.50
2022-10-11T17:26:35.588Z,66.03
2022-10-11T17:29:42.543Z,62.89
2022-10-11T17:32:49.317Z,60.51
2022-10-11T17:35:56.308Z,56.55
2022-10-11T17:39:05.397Z,56.55
2022-10-11T17:42:12.213Z,58.61
2022-10-11T17:45:19.721Z,59.75
2022-10-11T17:48:27.341Z,60.91
2022-10-11T17:51:34.497Z,64.90
2022-10-11T17:54:41.058Z,67.90
2022-10-11T17:57:47.865Z,64.64
2022-10-11T18:00:54.965Z,60.78
2022-10-11T18:04:07.018Z,57.74
2022-10-11T18:07:13.730Z,57.82
2022-10-11T18:10:20.757Z,59.49
2022-10-11T18:13:27.616Z,61.41
2022-10-11T18:16:34.799Z,66.37
2022-10-11T18:19:41.540Z,67.74
2022-10-11T18:22:48.260Z,64.37
2022-10-11T18:25:54.788Z,60.96
2022-10-11T18:29:01.858Z,56.67
2022-10-11T18:32:08.659Z,56.98
2022-10-11T18:35:15.417Z,59.09
2022-10-11T18:38:22.319Z,60.69
2022-10-11T18:41:32.182Z,65.56
2022-10-11T18:44:39.284Z,67.22
2022-10-11T18:47:46.093Z,64.38
2022-10-11T18:51:01.880Z,61.73
2022-10-11T18:54:13.930Z,58.73
2022-10-11T18:57:24.318Z,56.54
2022-10-11T19:00:40.742Z,59.09
2022-10-11T19:03:50.417Z,60.81
2022-10-11T19:06:57.326Z,66.05
2022-10-11T19:10:04.609Z,67.40
2022-10-11T19:13:11.285Z,64.19
2022-10-11T19:16:20.083Z,61.84
2022-10-11T19:19:29.391Z,61.01
2022-10-11T19:22:36.143Z,59.99
2022-10-11T19:25:42.915Z,57.56
2022-10-11T19:28:55.258Z,58.50
2022-10-11T19:32:04.116Z,60.66
2022-10-11T19:35:15.306Z,65.27
2022-10-11T19:38:26.146Z,66.19
2022-10-11T19:41:33.385Z,64.28
2022-10-11T19:44:40.237Z,62.51
2022-10-11T19:47:46.830Z,61.87
2022-10-11T19:50:53.415Z,61.16
2022-10-11T19:54:01.823Z,60.52
2022-10-11T19:57:09.579Z,60.16
2022-10-11T20:00:17.868Z,57.91
2022-10-11T20:03:24.650Z,58.29
2022-10-11T20:06:37.230Z,60.41
2022-10-11T20:09:44.932Z,65.07
2022-10-11T20:12:51.748Z,66.59
2022-10-11T20:16:00.280Z,64.40
2022-10-11T20:19:07.055Z,62.77
2022-10-11T20:22:13.671Z,61.52
2022-10-11T20:25:20.446Z,60.87
2022-10-11T20:28:28.067Z,60.15
2022-10-11T20:31:38.285Z,59.51
2022-10-11T20:34:45.087Z,58.13
2022-10-11T20:37:53.653Z,59.87
2022-10-11T20:41:00.317Z,64.54
2022-10-11T20:44:07.547Z,66.05
2022-10-11T20:47:14.242Z,63.47
2022-10-11T20:50:23.167Z,61.93
2022-10-11T20:53:31.089Z,60.66
2022-10-11T20:56:38.346Z,60.44
2022-10-11T20:59:45.684Z,58.09
2022-10-11T21:02:54.322Z,59.02
2022-10-11T21:06:03.897Z,61.36
2022-10-11T21:09:11.282Z,66.18
2022-10-11T21:12:20.619Z,67.68
2022-10-11T21:15:27.269Z,65.42
2022-10-11T21:18:34.305Z,63.48
2022-10-11T21:21:40.972Z,61.86
2022-10-11T21:24:47.591Z,60.97
2022-10-11T21:27:54.273Z,60.54
2022-10-11T21:31:06.981Z,59.90
2022-10-11T21:34:13.599Z,57.73
2022-10-11T21:37:20.241Z,59.30
2022-10-11T21:40:27.050Z,61.31
2022-10-11T21:43:35.253Z,66.92
2022-10-11T21:47:06.031Z,68.23
2022-10-11T21:50:09.383Z,65.30
2022-10-11T21:53:15.972Z,63.72
2022-10-11T21:56:22.960Z,62.32
2022-10-11T21:59:29.633Z,61.69
2022-10-11T22:02:36.806Z,60.80
2022-10-11T22:05:47.150Z,59.91
2022-10-11T22:08:53.811Z,57.74
2022-10-11T22:12:00.422Z,58.66
2022-10-11T22:15:08.516Z,61.07
2022-10-11T22:18:15.272Z,65.85
2022-10-11T22:21:23.940Z,67.92
2022-10-11T22:24:31.822Z,65.67
2022-10-11T22:27:38.498Z,63.59
2022-10-11T22:30:45.322Z,62.24
2022-10-11T22:33:56.306Z,61.49
2022-10-11T22:37:03.020Z,60.69
2022-10-11T22:40:11.157Z,59.77
2022-10-11T22:43:17.807Z,58.38
2022-10-11T22:46:24.494Z,60.07
2022-10-11T22:49:31.139Z,64.99
2022-10-11T22:52:37.792Z,65.94
2022-10-11T22:55:44.627Z,63.67
2022-10-11T22:58:51.368Z,62.03
2022-10-11T23:01:57.895Z,61.27
2022-10-11T23:05:04.711Z,60.64
2022-10-11T23:08:11.686Z,59.64
2022-10-11T23:11:18.453Z,58.40
2022-10-11T23:14:25.109Z,59.70
2022-10-11T23:17:31.756Z,61.94
2022-10-11T23:20:40.594Z,66.98
2022-10-11T23:23:47.958Z,68.59
2022-10-11T23:26:54.557Z,66.52
2022-10-11T23:30:01.245Z,64.51
2022-10-11T23:33:07.897Z,63.73
2022-10-11T23:36:19.527Z,63.10
2022-10-11T23:39:26.133Z,62.20
2022-10-11T23:42:32.855Z,61.42
2022-10-11T23:45:39.709Z,61.21
2022-10-11T23:48:46.427Z,60.15
2022-10-11T23:51:53.140Z,58.07
2022-10-11T23:54:59.744Z,59.33
2022-10-11T23:58:06.446Z,61.75
